Time;durP1;ratioP1;P1;durP2;ratioP2;P2;SDS_P1;SDS_P2;PMS_P1;PMS_P2;Temp;Humidity;BMP_temperature;BMP_pressure;BME280_temperature;BME280_humidity;BME280_pressure;Samples;Min_cycle;Max_cycle;Signal;HPM_P1;HPM_P2
2023/03/10 00:02:05;;;;;;;2.33;0.80;;;9.70;99.90;;;;;;4747546;30;20040;-76
2023/03/10 00:04:31;;;;;;;2.03;1.02;;;9.70;99.90;;;;;;4747682;30;20060;-76
2023/03/10 00:06:57;;;;;;;2.45;1.17;;;9.60;99.90;;;;;;4747353;30;20036;-76
2023/03/10 00:09:23;;;;;;;1.17;0.63;;;9.60;99.90;;;;;;4747331;30;20033;-76
2023/03/10 00:11:48;;;;;;;1.85;1.27;;;9.60;99.90;;;;;;4731961;30;20530;-76
2023/03/10 00:14:14;;;;;;;1.02;0.82;;;9.60;99.90;;;;;;4747422;30;20056;-76
2023/03/10 00:16:40;;;;;;;1.50;1.38;;;9.50;99.90;;;;;;4747125;30;20036;-76
2023/03/10 00:19:06;;;;;;;1.35;1.17;;;9.50;99.90;;;;;;4745833;30;20040;-76
2023/03/10 00:21:33;;;;;;;1.63;1.52;;;9.50;99.90;;;;;;4731297;30;20223;-76
2023/03/10 00:23:59;;;;;;;1.38;0.93;;;9.50;99.90;;;;;;4747450;30;20094;-76
2023/03/10 00:26:26;;;;;;;2.92;1.15;;;9.40;99.90;;;;;;4747093;30;20072;-76
2023/03/10 00:28:53;;;;;;;3.85;1.30;;;9.40;99.90;;;;;;4745933;30;20067;-76
2023/03/10 00:31:22;;;;;;;0.88;0.88;;;9.50;99.90;;;;;;4745885;30;20029;-76
2023/03/10 00:33:48;;;;;;;3.33;1.42;;;9.50;99.90;;;;;;4747402;30;20066;-76
2023/03/10 00:36:17;;;;;;;0.93;0.68;;;9.50;99.90;;;;;;4747097;30;20037;-76
2023/03/10 00:38:44;;;;;;;1.45;0.95;;;9.50;99.90;;;;;;4728171;30;20076;-76
2023/03/10 00:41:13;;;;;;;0.65;0.65;;;9.50;99.90;;;;;;4742637;30;20040;-76
2023/03/10 00:43:38;;;;;;;0.60;0.60;;;9.50;99.90;;;;;;4728264;30;20041;-76
2023/03/10 00:46:05;;;;;;;0.90;0.80;;;9.50;99.90;;;;;;4729568;30;20068;-76
2023/03/10 00:48:31;;;;;;;1.65;0.85;;;9.40;99.90;;;;;;4758904;30;20033;-76
2023/03/10 00:50:58;;;;;;;1.15;1.05;;;9.40;99.90;;;;;;4745613;30;20194;-76
2023/03/10 00:53:24;;;;;;;3.28;1.10;;;9.40;99.90;;;;;;4746852;30;20101;-76
2023/03/10 00:56:18;;;;;;;1.27;0.93;;;9.50;99.90;;;;;;4746763;30;20122;-76
2023/03/10 00:58:44;;;;;;;1.70;1.05;;;9.50;99.90;;;;;;4743850;30;20080;-76
2023/03/10 01:01:15;;;;;;;1.77;1.67;;;9.40;99.90;;;;;;4745668;30;20028;-76
2023/03/10 01:03:41;;;;;;;5.38;2.00;;;9.50;99.90;;;;;;4731187;30;20070;-76
2023/03/10 01:06:07;;;;;;;3.20;1.98;;;9.50;99.90;;;;;;4732477;30;20039;-76
2023/03/10 01:08:34;;;;;;;2.83;1.92;;;9.50;99.90;;;;;;4732319;30;20041;-76
2023/03/10 01:11:00;;;;;;;3.03;1.80;;;9.50;99.90;;;;;;4745530;30;20056;-76
2023/03/10 01:13:26;;;;;;;4.18;2.35;;;9.50;99.90;;;;;;4745698;30;20466;-76
2023/03/10 01:15:51;;;;;;;3.72;2.58;;;9.50;99.90;;;;;;4730752;30;20036;-76
2023/03/10 01:18:18;;;;;;;2.42;2.33;;;9.50;99.90;;;;;;4745284;30;20037;-76
2023/03/10 01:20:46;;;;;;;2.13;2.03;;;9.50;99.90;;;;;;4746830;30;20032;-76
2023/03/10 01:23:25;;;;;;;1.77;1.67;;;9.50;99.90;;;;;;4745493;30;20037;-76
2023/03/10 01:25:51;;;;;;;2.67;2.47;;;9.50;99.90;;;;;;4730856;30;20068;-76
2023/03/10 01:28:18;;;;;;;2.00;1.75;;;9.50;99.90;;;;;;4745106;30;20415;-76
2023/03/10 01:30:44;;;;;;;1.88;1.77;;;9.50;99.90;;;;;;4745299;30;20052;-76
2023/03/10 01:33:11;;;;;;;2.92;1.20;;;9.50;99.90;;;;;;4746691;30;20115;-76
2023/03/10 01:35:38;;;;;;;1.90;1.67;;;9.50;99.90;;;;;;4745275;30;20040;-76
2023/03/10 01:38:05;;;;;;;1.98;1.48;;;9.50;99.90;;;;;;4745297;30;20060;-76
2023/03/10 01:40:31;;;;;;;3.50;1.60;;;9.50;99.90;;;;;;4746622;30;20101;-76
2023/03/10 01:43:24;;;;;;;1.85;1.75;;;9.60;99.90;;;;;;4746481;30;20041;-76
2023/03/10 01:45:50;;;;;;;2.85;1.70;;;9.50;99.90;;;;;;4745151;30;20135;-76
2023/03/10 01:48:18;;;;;;;1.38;1.27;;;9.50;99.90;;;;;;4730719;30;20044;-76
2023/03/10 01:50:47;;;;;;;2.95;1.73;;;9.50;99.90;;;;;;4730629;30;20099;-76
2023/03/10 01:53:15;;;;;;;1.73;1.63;;;9.50;99.90;;;;;;4748965;30;20454;-76
2023/03/10 01:55:46;;;;;;;1.50;1.40;;;9.50;99.90;;;;;;4733570;30;20132;-76
2023/03/10 01:58:14;;;;;;;1.88;1.20;;;9.40;99.90;;;;;;4749630;30;20403;-76
2023/03/10 02:00:41;;;;;;;1.63;1.52;;;9.50;99.90;;;;;;4749721;30;20041;-76
2023/03/10 02:03:25;;;;;;;2.20;1.60;;;9.40;99.90;;;;;;4734055;30;20060;-76
2023/03/10 02:05:55;;;;;;;2.92;1.15;;;9.40;99.90;;;;;;4748387;30;20108;-76
2023/03/10 02:08:22;;;;;;;;;;;9.40;99.90;;;;;;4749687;30;20041;-76
2023/03/10 02:10:50;;;;;;;;;;;9.40;99.90;;;;;;4748569;30;19930;-76
2023/03/10 02:13:16;;;;;;;;;;;9.40;99.90;;;;;;4748569;30;19963;-76
2023/03/10 02:15:42;;;;;;;;;;;9.40;99.90;;;;;;4734155;30;20024;-76
2023/03/10 02:18:09;;;;;;;;;;;9.40;99.90;;;;;;4733734;30;19911;-76
2023/03/10 02:20:39;;;;;;;;;;;9.50;99.90;;;;;;4749795;30;20432;-77
2023/03/10 02:23:06;;;;;;;;;;;9.50;99.90;;;;;;4748509;30;19941;-76
2023/03/10 02:25:55;;;;;;;;;;;9.50;99.90;;;;;;4748542;30;19954;-77
2023/03/10 02:28:21;;;;;;;;;;;9.50;99.90;;;;;;4748250;30;19914;-76
2023/03/10 02:30:48;;;;;;;;;;;9.50;99.90;;;;;;4749519;30;19922;-76
2023/03/10 02:33:22;;;;;;;;;;;9.50;99.90;;;;;;4748458;30;19981;-76
2023/03/10 02:35:49;;;;;;;;;;;9.50;99.90;;;;;;4748280;30;19926;-76
2023/03/10 02:38:19;;;;;;;;;;;9.60;99.90;;;;;;4749026;30;19974;-76
2023/03/10 02:40:46;;;;;;;;;;;9.60;99.90;;;;;;4733394;30;19914;-76
2023/03/10 02:43:24;;;;;;;;;;;9.60;99.90;;;;;;4748281;30;19946;-76
2023/03/10 02:45:55;;;;;;;;;;;9.60;99.90;;;;;;4748313;30;20010;-76
2023/03/10 02:48:25;;;;;;;;;;;9.60;99.90;;;;;;4747663;30;19914;-76
2023/03/10 02:50:51;;;;;;;;;;;9.60;99.90;;;;;;4747994;30;19914;-76
2023/03/10 02:53:21;;;;;;;;;;;9.60;99.90;;;;;;4747976;30;19914;-76
2023/03/10 02:55:48;;;;;;;;;;;9.60;99.90;;;;;;4729169;30;20019;-77
2023/03/10 02:58:14;;;;;;;;;;;9.60;99.90;;;;;;4729425;30;19922;-76
2023/03/10 03:00:41;;;;;;;;;;;9.50;99.90;;;;;;4715139;30;19958;-76
2023/03/10 03:03:08;;;;;;;;;;;9.50;99.90;;;;;;4714481;30;19922;-76
2023/03/10 03:05:33;;;;;;;;;;;9.50;99.90;;;;;;4714809;30;20005;-76
2023/03/10 03:08:00;;;;;;;;;;;9.50;99.90;;;;;;4714875;30;19914;-76
2023/03/10 03:10:26;;;;;;;;;;;9.40;99.90;;;;;;4714651;30;19926;-76
2023/03/10 03:12:52;;;;;;;;;;;9.50;99.90;;;;;;4714762;30;19915;-76
2023/03/10 03:15:18;;;;;;;;;;;9.40;99.90;;;;;;4714904;30;19918;-76
2023/03/10 03:17:43;;;;;;;;;;;9.40;99.90;;;;;;4714476;30;19915;-76
2023/03/10 03:20:13;;;;;;;;;;;9.30;99.90;;;;;;4714654;30;19922;-76
2023/03/10 03:22:40;;;;;;;;;;;9.30;99.90;;;;;;4714624;30;19914;-76
2023/03/10 03:25:06;;;;;;;;;;;9.30;99.90;;;;;;4714587;30;19914;-76
2023/03/10 03:27:32;;;;;;;;;;;9.20;99.90;;;;;;4740566;30;19960;-76
2023/03/10 03:29:58;;;;;;;;;;;9.30;99.90;;;;;;4747527;30;19918;-76
2023/03/10 03:32:24;;;;;;;;;;;9.20;99.90;;;;;;4732805;30;20296;-76
2023/03/10 03:34:50;;;;;;;;;;;9.20;99.90;;;;;;4732613;30;19918;-76
2023/03/10 03:37:15;;;;;;;;;;;9.20;99.90;;;;;;4747153;30;19918;-76
2023/03/10 03:39:41;;;;;;;;;;;9.20;99.90;;;;;;4748314;30;19925;-76
2023/03/10 03:42:08;;;;;;;;;;;9.20;99.90;;;;;;4732729;30;20388;-76
2023/03/10 03:44:43;;;;;;;;;;;9.10;99.90;;;;;;4733805;30;19914;-76
2023/03/10 03:47:09;;;;;;;;;;;9.10;99.90;;;;;;4732320;30;19914;-76
2023/03/10 03:49:36;;;;;;;;;;;9.20;99.90;;;;;;4746985;30;20293;-76
2023/03/10 03:52:03;;;;;;;;;;;9.20;99.90;;;;;;4747136;30;19922;-76
2023/03/10 03:54:28;;;;;;;;;;;9.20;99.90;;;;;;4729218;30;20315;-77
2023/03/10 03:56:54;;;;;;;;;;;9.20;99.90;;;;;;4729585;30;19958;-76
2023/03/10 03:59:20;;;;;;;;;;;9.20;99.90;;;;;;4732434;30;19918;-76
2023/03/10 04:01:46;;;;;;;;;;;9.20;99.90;;;;;;4746562;30;20365;-76
2023/03/10 04:04:12;;;;;;;;;;;9.10;99.90;;;;;;4746771;30;19918;-76
2023/03/10 04:06:38;;;;;;;;;;;9.00;99.90;;;;;;4732473;30;19926;-76
2023/03/10 04:09:07;;;;;;;;;;;9.00;99.90;;;;;;4746457;30;19941;-76
2023/03/10 04:11:33;;;;;;;;;;;8.90;99.90;;;;;;4746576;30;19910;-76
2023/03/10 04:13:59;;;;;;;;;;;8.90;99.90;;;;;;4746385;30;19918;-76
2023/03/10 04:16:25;;;;;;;;;;;8.90;99.90;;;;;;4746287;30;20392;-76
2023/03/10 04:18:51;;;;;;;;;;;8.90;99.90;;;;;;4746363;30;19915;-76
2023/03/10 04:21:17;;;;;;;;;;;8.90;99.90;;;;;;4746735;30;19915;-76
2023/03/10 04:23:44;;;;;;;;;;;8.90;99.90;;;;;;4746374;30;20411;-76
2023/03/10 04:26:13;;;;;;;;;;;8.90;99.90;;;;;;4747420;30;19965;-76
2023/03/10 04:28:40;;;;;;;;;;;9.00;99.90;;;;;;4747966;30;20361;-76
2023/03/10 04:31:15;;;;;;;;;;;9.00;99.90;;;;;;4746111;30;19925;-76
2023/03/10 04:33:41;;;;;;;;;;;9.00;99.90;;;;;;4746377;30;19940;-76
2023/03/10 04:36:07;;;;;;;;;;;9.00;99.90;;;;;;4745994;30;19910;-76
2023/03/10 04:38:33;;;;;;;;;;;9.00;99.90;;;;;;4731935;30;19918;-76
2023/03/10 04:41:00;;;;;;;;;;;9.00;99.90;;;;;;4746271;30;20009;-76
2023/03/10 04:43:31;;;;;;;;;;;9.00;99.90;;;;;;4746313;30;20371;-76
2023/03/10 04:45:57;;;;;;;;;;;8.90;99.90;;;;;;4745947;30;19919;-76
2023/03/10 04:48:23;;;;;;;;;;;8.90;99.90;;;;;;4746180;30;19942;-76
2023/03/10 04:50:57;;;;;;;;;;;8.90;99.90;;;;;;4746166;30;19914;-76
2023/03/10 04:53:24;;;;;;;;;;;8.90;99.90;;;;;;4739957;30;19915;-76
2023/03/10 04:55:50;;;;;;;;;;;8.90;99.90;;;;;;4745304;30;19923;-76
2023/03/10 04:58:18;;;;;;;;;;;8.90;99.90;;;;;;4745962;30;19915;-76
2023/03/10 05:00:44;;;;;;;;;;;8.90;99.90;;;;;;4746177;30;19914;-76
2023/03/10 05:03:10;;;;;;;;;;;8.90;99.90;;;;;;4731416;30;19938;-75
2023/03/10 05:05:36;;;;;;;;;;;8.90;99.90;;;;;;4745874;30;19975;-76
2023/03/10 05:08:03;;;;;;;;;;;8.90;99.90;;;;;;4731571;30;19914;-76
2023/03/10 05:10:29;;;;;;;;;;;8.90;99.90;;;;;;4745955;30;19950;-76
2023/03/10 05:12:55;;;;;;;;;;;8.90;99.90;;;;;;4745943;30;19918;-76
2023/03/10 05:15:21;;;;;;;;;;;8.90;99.90;;;;;;4745787;30;19914;-76
2023/03/10 05:17:47;;;;;;;;;;;9.00;99.90;;;;;;4747239;30;19984;-76
2023/03/10 05:20:14;;;;;;;;;;;9.00;99.90;;;;;;4745885;30;19914;-76
2023/03/10 05:22:40;;;;;;;;;;;9.00;99.90;;;;;;4731439;30;19914;-76
2023/03/10 05:25:09;;;;;;;;;;;9.00;99.90;;;;;;4745743;30;20005;-76
2023/03/10 05:27:35;;;;;;;;;;;9.00;99.90;;;;;;4750231;30;19922;-76
2023/03/10 05:30:01;;;;;;;;;;;8.90;99.90;;;;;;4749399;30;19918;-76
2023/03/10 05:32:27;;;;;;;;;;;8.80;99.90;;;;;;4749207;30;20361;-76
2023/03/10 05:34:54;;;;;;;;;;;8.80;99.90;;;;;;4748898;30;19921;-76
2023/03/10 05:37:20;;;;;;;;;;;8.70;99.90;;;;;;4749463;30;19925;-76
2023/03/10 05:39:46;;;;;;;;;;;8.60;99.90;;;;;;4749135;30;19914;-76
2023/03/10 05:42:17;;;;;;;;;;;8.60;99.90;;;;;;4750472;30;19914;-76
2023/03/10 05:44:42;;;;;;;;;;;8.50;99.90;;;;;;4747236;30;20288;-76
2023/03/10 05:47:08;;;;;;;;;;;8.60;99.90;;;;;;4743368;30;19926;-76
2023/03/10 05:49:34;;;;;;;;;;;8.70;99.90;;;;;;4742242;30;19923;-76
2023/03/10 05:52:00;;;;;;;;;;;8.70;99.90;;;;;;4748916;30;19914;-76
2023/03/10 05:54:26;;;;;;;;;;;8.80;99.90;;;;;;4733721;30;20454;-76
2023/03/10 05:56:52;;;;;;;;;;;8.80;99.90;;;;;;4763223;30;19922;-76
2023/03/10 05:59:20;;;;;;;;;;;8.80;99.90;;;;;;4735891;30;19978;-76
2023/03/10 06:01:47;;;;;;;;;;;8.90;99.90;;;;;;4747492;30;19922;-76
2023/03/10 06:04:13;;;;;;;;;;;8.90;99.90;;;;;;4733846;30;19922;-76
2023/03/10 06:06:39;;;;;;;;;;;8.90;99.90;;;;;;4744310;30;19950;-76
2023/03/10 06:09:06;;;;;;;;;;;8.90;99.90;;;;;;4748342;30;19915;-76
2023/03/10 06:11:32;;;;;;;;;;;8.90;99.90;;;;;;4762700;30;19922;-76
2023/03/10 06:14:00;;;;;;;;;;;8.90;99.90;;;;;;4748534;30;20280;-76
2023/03/10 06:16:30;;;;;;;;;;;8.90;99.90;;;;;;4749034;30;19925;-77
2023/03/10 06:18:56;;;;;;;;;;;8.90;99.90;;;;;;4749181;30;19914;-78
2023/03/10 06:21:22;;;;;;;;;;;8.90;99.90;;;;;;4749366;30;19914;-77
2023/03/10 06:23:48;;;;;;;;;;;8.80;99.90;;;;;;4748736;30;19921;-78
2023/03/10 06:26:14;;;;;;;;;;;8.80;99.90;;;;;;4748133;30;19915;-77
2023/03/10 06:28:41;;;;;;;;;;;8.90;99.90;;;;;;4748667;30;19914;-77
2023/03/10 06:31:10;;;;;;;;;;;8.90;99.90;;;;;;4749970;30;20395;-77
2023/03/10 06:33:37;;;;;;;;;;;8.90;99.90;;;;;;4749758;30;19914;-78
2023/03/10 06:36:03;;;;;;;;;;;8.90;99.90;;;;;;4748829;30;19940;-77
2023/03/10 06:38:29;;;;;;;;;;;8.90;99.90;;;;;;4749068;30;19914;-77
2023/03/10 06:40:55;;;;;;;;;;;8.90;99.90;;;;;;4750465;30;19918;-77
2023/03/10 06:43:21;;;;;;;;;;;8.90;99.90;;;;;;4747866;30;19919;-78
2023/03/10 06:45:47;;;;;;;;;;;8.90;99.90;;;;;;4748646;30;19926;-78
2023/03/10 06:48:13;;;;;;;;;;;8.90;99.90;;;;;;4748810;30;20369;-78
2023/03/10 06:50:46;;;;;;;;;;;8.90;99.90;;;;;;4747882;30;20042;-78
2023/03/10 06:53:12;;;;;;;;;;;9.00;99.90;;;;;;4746708;30;20365;-78
2023/03/10 06:55:38;;;;;;;;;;;9.20;99.90;;;;;;4748264;30;19926;-77
2023/03/10 06:58:04;;;;;;;;;;;9.40;99.90;;;;;;4748749;30;19914;-78
2023/03/10 07:00:30;;;;;;;;;;;9.60;99.90;;;;;;4747657;30;19914;-77
2023/03/10 07:02:55;;;;;;;;;;;9.70;99.90;;;;;;4747638;30;19911;-78
2023/03/10 07:05:22;;;;;;;;;;;9.80;99.90;;;;;;4748193;30;20442;-78
2023/03/10 07:07:49;;;;;;;;;;;9.80;99.90;;;;;;4748787;30;19918;-78
2023/03/10 07:10:15;;;;;;;;;;;9.80;99.90;;;;;;4748798;30;19977;-77
2023/03/10 07:12:41;;;;;;;;;;;9.70;99.90;;;;;;4747667;30;20015;-77
2023/03/10 07:15:07;;;;;;;;;;;9.90;99.90;;;;;;4746924;30;19914;-78
2023/03/10 07:17:33;;;;;;;;;;;10.10;99.90;;;;;;4747290;30;19917;-78
2023/03/10 07:19:58;;;;;;;;;;;11.20;99.90;;;;;;4732516;30;19929;-78
2023/03/10 07:22:24;;;;;;;;;;;12.10;99.90;;;;;;4732532;30;19955;-78
2023/03/10 07:24:52;;;;;;;;;;;11.80;99.90;;;;;;4746583;30;21611;-77
2023/03/10 07:27:18;;;;;;;;;;;11.60;99.90;;;;;;4748566;30;19918;-77
2023/03/10 07:29:44;;;;;;;;;;;11.40;99.90;;;;;;4747931;30;19922;-78
2023/03/10 07:32:09;;;;;;;;;;;11.30;99.90;;;;;;4746926;30;19918;-78
2023/03/10 07:34:35;;;;;;;;;;;11.30;99.90;;;;;;4747024;30;19918;-78
2023/03/10 07:37:01;;;;;;;;;;;11.20;99.90;;;;;;4748626;30;19922;-78
2023/03/10 07:39:27;;;;;;;;;;;11.10;99.90;;;;;;4747412;30;19926;-78
2023/03/10 07:41:52;;;;;;;;;;;11.30;99.90;;;;;;4747799;30;19921;-78
2023/03/10 07:44:18;;;;;;;;;;;11.60;99.90;;;;;;4746820;30;19919;-77
2023/03/10 07:46:44;;;;;;;;;;;12.40;99.90;;;;;;4743397;30;20400;-78
2023/03/10 07:49:10;;;;;;;;;;;13.20;99.90;;;;;;4725191;30;19919;-78
2023/03/10 07:51:36;;;;;;;;;;;14.60;99.90;;;;;;4731720;30;19925;-77
2023/03/10 07:54:02;;;;;;;;;;;15.00;99.90;;;;;;4742805;30;20355;-78
2023/03/10 07:56:28;;;;;;;;;;;15.80;99.90;;;;;;4741959;30;19985;-78
2023/03/10 07:58:53;;;;;;;;;;;17.80;99.90;;;;;;4747442;30;19927;-79
2023/03/10 08:01:20;;;;;;;;;;;19.30;99.90;;;;;;4734996;30;19926;-78
2023/03/10 08:03:46;;;;;;;;;;;19.50;99.90;;;;;;4738862;30;19910;-78
2023/03/10 08:06:16;;;;;;;;;;;18.40;99.90;;;;;;4744306;30;20003;-77
2023/03/10 08:08:41;;;;;;;;;;;16.80;99.90;;;;;;4733836;30;19919;-78
2023/03/10 08:11:09;;;;;;;;;;;15.50;99.90;;;;;;4758810;30;19918;-78
2023/03/10 08:13:35;;;;;;;;;;;15.10;99.90;;;;;;4745620;30;20332;-78
2023/03/10 08:16:01;;;;;;;;;;;16.10;99.90;;;;;;4747494;30;19953;-78
2023/03/10 08:18:28;;;;;;;;;;;15.40;99.90;;;;;;4760723;30;19910;-78
2023/03/10 08:20:54;;;;;;;;;;;15.00;99.90;;;;;;4747061;30;19914;-78
2023/03/10 08:23:20;;;;;;;;;;;14.50;99.90;;;;;;4747488;30;19982;-77
2023/03/10 08:25:45;;;;;;;;;;;14.10;99.90;;;;;;4747992;30;19917;-77
2023/03/10 08:28:12;;;;;;;;;;;14.30;99.90;;;;;;4750949;30;20012;-78
2023/03/10 08:30:38;;;;;;;;;;;14.30;99.90;;;;;;4745303;30;19954;-78
2023/03/10 08:33:07;;;;;;;;;;;14.90;99.90;;;;;;4748979;30;19910;-78
2023/03/10 08:35:33;;;;;;;;;;;15.50;99.90;;;;;;4748713;30;19937;-78
2023/03/10 08:37:59;;;;;;;;;;;15.50;99.90;;;;;;4762855;30;19990;-77
2023/03/10 08:40:25;;;;;;;;;;;15.20;99.90;;;;;;4748228;30;19915;-77
2023/03/10 08:42:50;;;;;;;;;;;14.80;99.90;;;;;;4733784;30;19914;-78
2023/03/10 08:45:17;;;;;;;;;;;14.60;99.90;;;;;;4747831;30;19914;-77
2023/03/10 08:47:42;;;;;;;;;;;14.80;99.90;;;;;;4749719;30;19915;-77
2023/03/10 08:50:10;;;;;;;;;;;14.90;99.90;;;;;;4747707;30;19922;-77
2023/03/10 08:52:35;;;;;;;;;;;14.60;99.90;;;;;;4748840;30;19997;-77
2023/03/10 08:55:03;;;;;;;;;;;14.30;99.90;;;;;;4746695;30;19930;-75
2023/03/10 08:57:29;;;;;;;;;;;14.40;99.90;;;;;;4728598;30;19919;-76
2023/03/10 08:59:55;;;;;;;;;;;14.10;99.90;;;;;;4728602;30;19969;-75
2023/03/10 09:02:21;;;;;;;;;;;13.70;99.90;;;;;;4729207;30;19922;-75
2023/03/10 09:04:47;;;;;;;;;;;13.20;99.90;;;;;;4730948;30;19995;-76
2023/03/10 09:07:13;;;;;;;;;;;13.20;99.90;;;;;;4747197;30;20012;-76
2023/03/10 09:09:39;;;;;;;;;;;13.10;99.90;;;;;;4746044;30;19919;-76
2023/03/10 09:12:07;;;;;;;;;;;12.70;99.90;;;;;;4745915;30;19941;-76
2023/03/10 09:14:33;;;;;;;;;;;12.60;99.90;;;;;;4747336;30;19915;-76
2023/03/10 09:16:59;;;;;;;;;;;12.50;99.90;;;;;;4745601;30;19919;-76
2023/03/10 09:19:24;;;;;;;;;;;12.50;99.90;;;;;;4747067;30;20262;-76
2023/03/10 09:21:50;;;;;;;;;;;12.30;99.90;;;;;;4745681;30;20381;-75
2023/03/10 09:24:18;;;;;;;;;;;12.20;99.90;;;;;;4731218;30;19920;-76
2023/03/10 09:26:43;;;;;;;;;;;12.00;99.90;;;;;;4747110;30;19915;-76
2023/03/10 09:29:09;;;;;;;;;;;11.90;99.90;;;;;;4747097;30;20379;-76
2023/03/10 09:31:35;;;;;;;;;;;11.80;99.90;;;;;;4746990;30;19918;-76
2023/03/10 09:34:01;;;;;;;;;;;11.70;99.90;;;;;;4745265;30;19954;-75
2023/03/10 09:36:28;;;;;;;;;;;11.50;99.90;;;;;;4747323;30;19951;-76
2023/03/10 09:38:55;;;;;;;;;;;11.50;99.90;;;;;;4746874;30;19911;-76
2023/03/10 09:41:27;;;;;;;;;;;11.80;99.90;;;;;;4731005;30;19921;-75
2023/03/10 09:44:11;;;;;;;;;;;12.10;99.90;;;;;;4746858;30;19974;-76
2023/03/10 09:46:37;;;;;;;;;;;12.00;99.90;;;;;;4747018;30;19914;-76
2023/03/10 09:49:19;;;;;;;;;;;12.20;99.90;;;;;;4745540;30;19969;-76
2023/03/10 09:51:47;;;;;;;;;;;12.20;99.90;;;;;;4747001;30;19942;-75
2023/03/10 09:54:38;;;;;;;;;;;12.20;99.90;;;;;;4743440;30;19962;-76
2023/03/10 09:57:11;;;;;;;;;;;12.20;99.90;;;;;;4746715;30;19929;-76
2023/03/10 09:59:38;;;;;;;;;;;12.30;99.90;;;;;;4747167;30;19914;-76
2023/03/10 10:02:19;;;;;;;;;;;12.20;99.90;;;;;;4746895;30;19934;-75
2023/03/10 10:04:46;;;;;;;;;;;12.20;99.90;;;;;;4737762;30;19914;-75
2023/03/10 10:07:16;;;;;;;;;;;12.10;99.90;;;;;;4746790;30;19936;-75
2023/03/10 10:09:52;;;;;;;;;;;11.90;99.90;;;;;;4745650;30;19918;-76
2023/03/10 10:12:22;;;;;;;;;;;12.00;99.90;;;;;;4745679;30;19921;-76
2023/03/10 10:14:54;;;;;;;;;;;11.80;99.90;;;;;;4750065;30;19914;-76
2023/03/10 10:17:23;;;;;;;;;;;11.40;99.90;;;;;;4749788;30;19951;-76
2023/03/10 10:19:49;;;;;;;;;;;11.20;99.90;;;;;;4748508;30;19918;-76
2023/03/10 10:22:14;;;;;;;;;;;10.90;99.90;;;;;;4748162;30;19950;-76
2023/03/10 10:24:41;;;;;;;;;;;10.60;99.90;;;;;;4748509;30;20456;-76
2023/03/10 10:27:06;;;;;;;;;;;10.50;99.90;;;;;;4733935;30;19914;-76
2023/03/10 10:29:35;;;;;;;;;;;10.40;99.90;;;;;;4748286;30;19981;-76
2023/03/10 10:32:05;;;;;;;;;;;10.30;99.90;;;;;;4749437;30;19947;-76
2023/03/10 10:34:31;;;;;;;;;;;10.10;99.90;;;;;;4731928;30;19915;-76
2023/03/10 10:36:57;;;;;;;;;;;10.10;99.90;;;;;;4731031;30;19914;-76
2023/03/10 10:39:40;;;;;;;;;;;10.10;99.90;;;;;;4731991;30;20001;-76
2023/03/10 10:42:26;;;;;;;;;;;10.10;99.90;;;;;;4745848;30;19949;-76
2023/03/10 10:44:53;;;;;;;;;;;10.10;99.90;;;;;;4749315;30;20004;-76
2023/03/10 10:47:31;;;;;;;;;;;10.10;99.90;;;;;;4748155;30;19914;-76
2023/03/10 10:50:12;;;;;;;;;;;10.00;99.90;;;;;;4733424;30;19924;-75
2023/03/10 10:52:38;;;;;;;;;;;9.90;99.90;;;;;;4745309;30;19915;-75
2023/03/10 10:55:04;;;;;;;;;;;9.90;99.90;;;;;;4731552;30;19926;-75
2023/03/10 10:57:31;;;;;;;;;;;9.90;99.90;;;;;;4731290;30;19965;-75
2023/03/10 11:00:17;;;;;;;;;;;9.90;99.90;;;;;;4742392;30;19949;-76
2023/03/10 11:02:43;;;;;;;;;;;9.90;99.90;;;;;;4731755;30;19990;-75
2023/03/10 11:05:14;;;;;;;;;;;10.00;99.90;;;;;;4731580;30;20622;-75
2023/03/10 11:07:41;;;;;;;;;;;10.00;99.90;;;;;;4747832;30;19915;-76
2023/03/10 11:10:17;;;;;;;;;;;10.00;99.90;;;;;;4747106;30;19925;-76
2023/03/10 11:13:01;;;;;;;;;;;10.10;99.90;;;;;;4747939;30;19915;-76
2023/03/10 11:15:33;;;;;;;;;;;10.20;99.90;;;;;;4747559;30;19972;-76
2023/03/10 11:18:05;;;;;;;;;;;10.20;99.90;;;;;;4743868;30;20389;-75
2023/03/10 11:20:38;;;;;;;;;;;10.30;99.90;;;;;;4748425;30;19915;-76
2023/03/10 11:23:08;;;;;;;;;;;10.30;99.90;;;;;;4747663;30;19918;-76
2023/03/10 11:25:37;;;;;;;;;;;10.40;99.90;;;;;;4748401;30;19921;-76
2023/03/10 11:28:21;;;;;;;;;;;10.40;99.90;;;;;;4748523;30;20380;-76
2023/03/10 11:30:55;;;;;;;;;;;10.50;99.90;;;;;;4748186;30;19922;-76
2023/03/10 11:33:35;;;;;;;;;;;10.50;99.90;;;;;;4746472;30;19991;-75
2023/03/10 11:36:15;;;;;;;;;;;10.50;99.90;;;;;;4747918;30;19919;-75
2023/03/10 11:38:47;;;;;;;;;;;10.70;99.90;;;;;;4747073;30;19918;-76
2023/03/10 11:41:13;;;;;;;;;;;10.70;99.90;;;;;;4748625;30;20424;-76
2023/03/10 11:43:42;;;;;;;;;;;10.70;99.90;;;;;;4745885;30;19921;-76
2023/03/10 11:46:17;;;;;;;;;;;10.70;99.90;;;;;;4747297;30;19918;-76
2023/03/10 11:48:52;;;;;;;;;;;10.90;99.90;;;;;;4744784;30;19914;-76
2023/03/10 11:51:25;;;;;;;;;;;11.00;99.90;;;;;;4744066;30;19918;-77
2023/03/10 11:53:52;;;;;;;;;;;11.10;99.90;;;;;;4731815;30;19914;-76
2023/03/10 11:56:20;;;;;;;;;;;11.10;99.90;;;;;;4745839;30;19923;-76
2023/03/10 11:58:48;;;;;;;;;;;11.10;99.90;;;;;;4746408;30;20383;-76
2023/03/10 12:01:16;;;;;;;;;;;11.20;99.90;;;;;;4746335;30;19911;-76
2023/03/10 12:03:47;;;;;;;;;;;11.20;99.90;;;;;;4747721;30;20381;-76
2023/03/10 12:06:18;;;;;;;;;;;11.30;99.90;;;;;;4746758;30;19919;-77
2023/03/10 12:08:45;;;;;;;;;;;11.20;99.90;;;;;;4731942;30;20358;-77
2023/03/10 12:11:14;;;;;;;;;;;11.20;99.90;;;;;;4730214;30;19919;-77
2023/03/10 12:13:43;;;;;;;;;;;11.10;99.90;;;;;;4741782;30;20377;-77
2023/03/10 12:16:14;;;;;;;;;;;11.20;99.90;;;;;;4742297;30;19925;-77
2023/03/10 12:18:40;;;;;;;;;;;11.20;99.90;;;;;;4738335;30;19999;-76
2023/03/10 12:21:13;;;;;;;;;;;11.20;99.90;;;;;;4735737;30;20289;-77
2023/03/10 12:23:40;;;;;;;;;;;11.20;99.90;;;;;;4732980;30;19945;-77
2023/03/10 12:26:06;;;;;;;;;;;11.10;99.90;;;;;;4747061;30;20471;-77
2023/03/10 12:28:33;;;;;;;;;;;11.00;99.90;;;;;;4747961;30;19914;-76
2023/03/10 12:31:00;;;;;;;;;;;11.10;99.90;;;;;;4748440;30;19922;-76
2023/03/10 12:33:29;;;;;;;;;;;11.30;99.90;;;;;;4749262;30;19920;-76
2023/03/10 12:36:01;;;;;;;;;;;11.30;99.90;;;;;;4750444;30;19914;-76
2023/03/10 12:38:45;;;;;;;;;;;11.30;99.90;;;;;;4751634;30;19921;-76
2023/03/10 12:41:13;;;;;;;;;;;11.20;99.90;;;;;;4734860;30;19914;-76
2023/03/10 12:43:42;;;;;;;;;;;11.20;99.90;;;;;;4750730;30;20000;-76
2023/03/10 12:46:09;;;;;;;;;;;11.30;99.90;;;;;;4752797;30;19914;-76
2023/03/10 12:48:38;;;;;;;;;;;11.30;99.90;;;;;;4749792;30;19921;-75
2023/03/10 12:51:10;;;;;;;;;;;11.30;99.90;;;;;;4726679;30;19973;-76
2023/03/10 12:53:44;;;;;;;;;;;11.20;99.90;;;;;;4749057;30;19914;-76
2023/03/10 12:56:10;;;;;;;;;;;11.20;99.90;;;;;;4751325;30;19922;-76
2023/03/10 12:58:37;;;;;;;;;;;11.10;99.90;;;;;;4747135;30;19922;-76
2023/03/10 17:57:50;;;;;;;;;;;1.90;99.90;;;;;;4749207;30;19933;-77
2023/03/10 18:00:16;;;;;;;;;;;2.10;99.90;;;;;;4768516;30;19914;-77
2023/03/10 18:02:42;;;;;;;;;;;2.10;99.90;;;;;;4770850;30;19918;-77
2023/03/10 18:05:08;;;;;;;;;;;2.00;99.90;;;;;;4769245;30;20273;-77
2023/03/10 18:07:34;;;;;;;;;;;2.10;99.90;;;;;;4770625;30;19940;-77
2023/03/10 18:10:00;;;;;;;;;;;2.10;99.90;;;;;;4770492;30;19918;-77
2023/03/10 18:12:25;;;;;;;;;;;2.10;99.90;;;;;;4781770;30;19913;-77
2023/03/10 18:14:51;;;;;;;;;;;2.20;99.90;;;;;;4767848;30;19918;-77
2023/03/10 18:17:17;;;;;;;;;;;2.30;99.90;;;;;;4770227;30;19914;-77
2023/03/10 18:19:42;;;;;;;;;;;2.20;99.90;;;;;;4769742;30;19985;-77
2023/03/10 18:22:08;;;;;;;;;;;2.20;99.90;;;;;;4770317;30;19921;-77
2023/03/10 18:24:34;;;;;;;;;;;2.30;99.90;;;;;;4771369;30;20009;-77
2023/03/10 18:27:00;;;;;;;;;;;2.20;99.90;;;;;;4755320;30;19940;-77
2023/03/10 18:29:26;;;;;;;;;;;2.20;99.90;;;;;;4769722;30;19917;-77
2023/03/10 18:31:51;;;;;;;;;;;2.20;99.90;;;;;;4771677;30;19914;-77
2023/03/10 18:34:18;;;;;;;;;;;2.30;99.90;;;;;;4786433;30;19914;-77
2023/03/10 18:36:43;;;;;;;;;;;2.20;99.90;;;;;;4786921;30;19920;-77
2023/03/10 18:39:10;;;;;;;;;;;2.50;99.90;;;;;;4788972;30;19914;-77
2023/03/10 18:41:36;;;;;;;;;;;2.30;99.90;;;;;;4772780;30;19920;-77
2023/03/10 18:44:03;;;;;;;;;;;2.40;99.90;;;;;;4772833;30;19914;-77
2023/03/10 18:46:29;;;;;;;;;;;2.30;99.90;;;;;;4787946;30;19914;-77
2023/03/10 18:48:55;;;;;;;;;;;2.30;99.90;;;;;;4780051;30;19936;-77
2023/03/10 18:51:24;;;;;;;;;;;2.20;99.90;;;;;;4769173;30;19918;-77
2023/03/10 18:53:50;;;;;;;;;;;2.20;99.90;;;;;;4753628;30;19953;-77
2023/03/10 18:56:16;;;;;;;;;;;2.10;99.90;;;;;;4769416;30;19925;-77
2023/03/10 18:58:41;;;;;;;;;;;2.00;99.90;;;;;;4767683;30;19949;-77
2023/03/10 19:01:11;;;;;;;;;;;2.00;99.90;;;;;;4767222;30;19953;-76
2023/03/10 19:03:37;;;;;;;;;;;1.90;99.90;;;;;;4768292;30;19914;-77
2023/03/10 19:06:03;;;;;;;;;;;1.80;99.90;;;;;;4768660;30;19925;-77
2023/03/10 19:08:28;;;;;;;;;;;1.80;99.90;;;;;;4768636;30;19914;-76
2023/03/10 19:10:55;;;;;;;;;;;1.90;99.90;;;;;;4768634;30;19917;-77
2023/03/10 19:13:21;;;;;;;;;;;1.90;99.90;;;;;;4767713;30;19953;-77